Tobinsport, Indiana
Current Conditions -  °F | °C
As of 2:55 PM on Tuesday 21 Oct 2014 (Local Time) from KHNB Reporting Station
Broken Clouds Broken Clouds  
Wind Chill: 61°   Ceiling: 4800
Heat Index: 61°   Visibility: 10mi
Dew Point: 43°   Wind: 10mph
Humidity: 52%   Direction: 10°N
Pressure: 30.09"   Gusts: NA
Location:  38.0928°N, 86.4878°W
Report Text: KHNB 211955Z AUTO 01009KT 10SM BKN048 BKN050 16/06 A3009 RMK AO1
Loading
Personal Weather Stations






























Interactive Weather Map
Tropical Storm Tracking
New forecast layout! Learn more

10-Day Weather Forecast

Advertisements
Track Severe Weather on mobile